Arona, Pennsylvania
Current Conditions -  °F | °C
As of 5:35 AM on Tuesday 27 Jan 2015 (Local Time) from KLBE Reporting Station
Light Snow Light Snow  
Wind Chill: 10°   Ceiling: 1000
Heat Index: 19°   Visibility: 5mi
Dew Point: 19°   Wind: 7mph
Humidity: 100%   Direction: 280°W
Pressure: 29.86"   Gusts: NA
Location:  40.27°N, 79.66°W
Report Text: KLBE 271035Z AUTO 28006KT 5SM -SN OVC010 M07/M07 A2986 RMK AO2
Loading
Personal Weather Stations






























Interactive Weather Map New forecast layout! Learn more

10-Day Weather Forecast

Advertisements
Track Severe Weather on mobile